PWSweather.com
Personal Weather Stations
Station Observations

Acton, CA 93510

Lat: 34.47703, Lon: -118.17483

Elevation: 2900

Station Type: Davis Vantage Pro 2

http://www.actonastro.com/weather/current.php

Latest ConditionsUpdated 6:45:43 AM PDT Tuesday, Sep 30, 2014
Currently Today's Max Today's Min Today's Average
Temperature 56.6°F13.7°C 62.6°F17.0°C 55.6°F13.1°C 58.2°F14.6°C
Dew Point 37.7°F3.2°C 40.4°F4.7°C 34.9°F1.6°C 38.0°F3.3°C
Winds 4.0 mph NE6.4 kmh NE 4.0 mph ENE6.4 kmh ENE - 1.8 mph 2.9 kmh
Wind Gusts 5.0 mph8.0 kmh 7.0 mph11.3 kmh - -
Humidity 49% 52% 43% 47%
Pressure 29.73 in1006.8 mb 29.76 in1007.8 mb 29.71 in1006.1 mb -
Hour Temp Dew Point Humidity Winds Wind Gusts Pressure Precip Precip Rate Daily Precip Total
06:45 AM 56.6°F13.7°C 37.7°F3.2°C 49% 4.0 mph NE6.4 kmh NE 5.0 mph8.0 kmh 29.73 in1006.8 mb 0.00 in0.0 mm 0.00 in/hr0.0 mm/hr 0.00 in0.0 mm
06:40 AM 56.2°F13.4°C 36.8°F2.7°C 48% 2.0 mph NE3.2 kmh NE 5.0 mph8.0 kmh 29.73 in1006.8 mb 0.00 in0.0 mm 0.00 in/hr0.0 mm/hr 0.00 in0.0 mm
06:35 AM 56.3°F13.5°C 36.9°F2.7°C 48% 3.0 mph ENE4.8 kmh ENE 5.0 mph8.0 kmh 29.73 in1006.8 mb 0.00 in0.0 mm 0.00 in/hr0.0 mm/hr 0.00 in0.0 mm
06:30 AM 56.5°F13.6°C 37.6°F3.1°C 49% 2.0 mph ENE3.2 kmh ENE 5.0 mph8.0 kmh 29.73 in1006.8 mb 0.00 in0.0 mm 0.00 in/hr0.0 mm/hr 0.00 in0.0 mm
06:25 AM 56.6°F13.7°C 37.1°F2.8°C 48% Calm Calm 3.0 mph4.8 kmh 29.73 in1006.8 mb 0.00 in0.0 mm 0.00 in/hr0.0 mm/hr 0.00 in0.0 mm
06:20 AM 56.9°F13.8°C 36.9°F2.7°C 47% 1.0 mph E1.6 kmh E 3.0 mph4.8 kmh 29.73 in1006.8 mb 0.00 in0.0 mm 0.00 in/hr0.0 mm/hr 0.00 in0.0 mm
06:15 AM 57.2°F14.0°C 37.2°F2.9°C 47% 2.0 mph E3.2 kmh E 3.0 mph4.8 kmh 29.73 in1006.8 mb 0.00 in0.0 mm 0.00 in/hr0.0 mm/hr 0.00 in0.0 mm
06:10 AM 57.5°F14.2°C 36.9°F2.7°C 46% 1.0 mph E1.6 kmh E 7.0 mph11.3 kmh 29.71 in1006.1 mb 0.00 in0.0 mm 0.00 in/hr0.0 mm/hr 0.00 in0.0 mm
06:05 AM 57.6°F14.2°C 37.0°F2.8°C 46% 1.0 mph E1.6 kmh E 7.0 mph11.3 kmh 29.71 in1006.1 mb 0.00 in0.0 mm 0.00 in/hr0.0 mm/hr 0.00 in0.0 mm
06:00 AM 57.8°F14.3°C 37.2°F2.9°C 46% 1.0 mph E1.6 kmh E 7.0 mph11.3 kmh 29.71 in1006.1 mb 0.00 in0.0 mm 0.00 in/hr0.0 mm/hr 0.00 in0.0 mm
05:55 AM 57.5°F14.2°C 37.4°F3.0°C 47% 3.0 mph ENE4.8 kmh ENE 7.0 mph11.3 kmh 29.72 in1006.4 mb 0.00 in0.0 mm 0.00 in/hr0.0 mm/hr 0.00 in0.0 mm
05:50 AM 56.5°F13.6°C 36.5°F2.5°C 47% 4.0 mph NE6.4 kmh NE 6.0 mph9.7 kmh 29.72 in1006.4 mb 0.00 in0.0 mm 0.00 in/hr0.0 mm/hr 0.00 in0.0 mm
05:45 AM 56.5°F13.6°C 35.4°F1.9°C 45% 1.0 mph E1.6 kmh E 3.0 mph4.8 kmh 29.72 in1006.4 mb 0.00 in0.0 mm 0.00 in/hr0.0 mm/hr 0.00 in0.0 mm
05:40 AM 56.6°F13.7°C 35.5°F1.9°C 45% 1.0 mph NE1.6 kmh NE 6.0 mph9.7 kmh 29.72 in1006.4 mb 0.00 in0.0 mm 0.00 in/hr0.0 mm/hr 0.00 in0.0 mm
05:35 AM 56.7°F13.7°C 35.0°F1.7°C 44% 2.0 mph NE3.2 kmh NE 6.0 mph9.7 kmh 29.72 in1006.4 mb 0.00 in0.0 mm 0.00 in/hr0.0 mm/hr 0.00 in0.0 mm
05:30 AM 56.6°F13.7°C 34.9°F1.6°C 44% 2.0 mph NE3.2 kmh NE 6.0 mph9.7 kmh 29.72 in1006.4 mb 0.00 in0.0 mm 0.00 in/hr0.0 mm/hr 0.00 in0.0 mm
05:25 AM 56.3°F13.5°C 35.8°F2.1°C 46% 4.0 mph NE6.4 kmh NE 6.0 mph9.7 kmh 29.72 in1006.4 mb 0.00 in0.0 mm 0.00 in/hr0.0 mm/hr 0.00 in0.0 mm
05:20 AM 56.0°F13.3°C 36.6°F2.6°C 48% 3.0 mph NE4.8 kmh NE 5.0 mph8.0 kmh 29.72 in1006.4 mb 0.00 in0.0 mm 0.00 in/hr0.0 mm/hr 0.00 in0.0 mm
05:15 AM 55.9°F13.3°C 37.0°F2.8°C 49% 3.0 mph ENE4.8 kmh ENE 5.0 mph8.0 kmh 29.72 in1006.4 mb 0.00 in0.0 mm 0.00 in/hr0.0 mm/hr 0.00 in0.0 mm
05:10 AM 55.6°F13.1°C 37.3°F2.9°C 50% 3.0 mph NE4.8 kmh NE 4.0 mph6.4 kmh 29.71 in1006.1 mb 0.00 in0.0 mm 0.00 in/hr0.0 mm/hr 0.00 in0.0 mm
05:05 AM 56.0°F13.3°C 37.1°F2.8°C 49% 3.0 mph NE4.8 kmh NE 4.0 mph6.4 kmh 29.71 in1006.1 mb 0.00 in0.0 mm 0.00 in/hr0.0 mm/hr 0.00 in0.0 mm
05:00 AM 56.5°F13.6°C 37.0°F2.8°C 48% 1.0 mph ENE1.6 kmh ENE 3.0 mph4.8 kmh 29.71 in1006.1 mb 0.00 in0.0 mm 0.00 in/hr0.0 mm/hr 0.00 in0.0 mm
04:55 AM 56.7°F13.7°C 37.2°F2.9°C 48% 1.0 mph ENE1.6 kmh ENE 3.0 mph4.8 kmh 29.71 in1006.1 mb 0.00 in0.0 mm 0.00 in/hr0.0 mm/hr 0.00 in0.0 mm
04:50 AM 56.9°F13.8°C 36.9°F2.7°C 47% Calm Calm -- 29.71 in1006.1 mb 0.00 in0.0 mm 0.00 in/hr0.0 mm/hr 0.00 in0.0 mm
04:45 AM 57.0°F13.9°C 37.0°F2.8°C 47% 1.0 mph NE1.6 kmh NE 5.0 mph8.0 kmh 29.71 in1006.1 mb 0.00 in0.0 mm 0.00 in/hr0.0 mm/hr 0.00 in0.0 mm
04:40 AM 57.0°F13.9°C 37.0°F2.8°C 47% 3.0 mph NE4.8 kmh NE 5.0 mph8.0 kmh 29.72 in1006.4 mb 0.00 in0.0 mm 0.00 in/hr0.0 mm/hr 0.00 in0.0 mm
04:35 AM 57.3°F14.1°C 36.7°F2.6°C 46% 3.0 mph NE4.8 kmh NE 5.0 mph8.0 kmh 29.72 in1006.4 mb 0.00 in0.0 mm 0.00 in/hr0.0 mm/hr 0.00 in0.0 mm
04:30 AM 57.3°F14.1°C 36.1°F2.3°C 45% 3.0 mph NE4.8 kmh NE 5.0 mph8.0 kmh 29.72 in1006.4 mb 0.00 in0.0 mm 0.00 in/hr0.0 mm/hr 0.00 in0.0 mm
04:25 AM 57.2°F14.0°C 36.6°F2.6°C 46% 3.0 mph NE4.8 kmh NE 5.0 mph8.0 kmh 29.72 in1006.4 mb 0.00 in0.0 mm 0.00 in/hr0.0 mm/hr 0.00 in0.0 mm
04:20 AM 57.5°F14.2°C 36.3°F2.4°C 45% 4.0 mph NE6.4 kmh NE 5.0 mph8.0 kmh 29.72 in1006.4 mb 0.00 in0.0 mm 0.00 in/hr0.0 mm/hr 0.00 in0.0 mm
04:15 AM 57.6°F14.2°C 35.8°F2.1°C 44% 2.0 mph NE3.2 kmh NE 5.0 mph8.0 kmh 29.72 in1006.4 mb 0.00 in0.0 mm 0.00 in/hr0.0 mm/hr 0.00 in0.0 mm
04:10 AM 58.1°F14.5°C 36.3°F2.4°C 44% 4.0 mph NE6.4 kmh NE 5.0 mph8.0 kmh 29.72 in1006.4 mb 0.00 in0.0 mm 0.00 in/hr0.0 mm/hr 0.00 in0.0 mm
04:05 AM 58.7°F14.8°C 37.4°F3.0°C 45% 2.0 mph E3.2 kmh E 4.0 mph6.4 kmh 29.72 in1006.4 mb 0.00 in0.0 mm 0.00 in/hr0.0 mm/hr 0.00 in0.0 mm
04:00 AM 59.2°F15.1°C 38.4°F3.6°C 46% 3.0 mph E4.8 kmh E 4.0 mph6.4 kmh 29.72 in1006.4 mb 0.00 in0.0 mm 0.00 in/hr0.0 mm/hr 0.00 in0.0 mm
03:55 AM 59.3°F15.2°C 38.5°F3.6°C 46% Calm Calm 4.0 mph6.4 kmh 29.72 in1006.4 mb 0.00 in0.0 mm 0.00 in/hr0.0 mm/hr 0.00 in0.0 mm
03:50 AM 59.0°F15.0°C 38.8°F3.8°C 47% 2.0 mph NE3.2 kmh NE 4.0 mph6.4 kmh 29.72 in1006.4 mb 0.00 in0.0 mm 0.00 in/hr0.0 mm/hr 0.00 in0.0 mm
03:45 AM 59.0°F15.0°C 38.2°F3.4°C 46% 2.0 mph NE3.2 kmh NE 3.0 mph4.8 kmh 29.72 in1006.4 mb 0.00 in0.0 mm 0.00 in/hr0.0 mm/hr 0.00 in0.0 mm
03:40 AM 59.2°F15.1°C 39.0°F3.9°C 47% 2.0 mph NE3.2 kmh NE 4.0 mph6.4 kmh 29.72 in1006.4 mb 0.00 in0.0 mm 0.00 in/hr0.0 mm/hr 0.00 in0.0 mm
03:35 AM 59.3°F15.2°C 39.1°F3.9°C 47% 1.0 mph ENE1.6 kmh ENE 4.0 mph6.4 kmh 29.72 in1006.4 mb 0.00 in0.0 mm 0.00 in/hr0.0 mm/hr 0.00 in0.0 mm
03:30 AM 59.5°F15.3°C 38.7°F3.7°C 46% 1.0 mph ENE1.6 kmh ENE 5.0 mph8.0 kmh 29.72 in1006.4 mb 0.00 in0.0 mm 0.00 in/hr0.0 mm/hr 0.00 in0.0 mm
03:25 AM 59.5°F15.3°C 39.3°F4.1°C 47% 2.0 mph ENE3.2 kmh ENE 5.0 mph8.0 kmh 29.73 in1006.8 mb 0.00 in0.0 mm 0.00 in/hr0.0 mm/hr 0.00 in0.0 mm
03:20 AM 59.0°F15.0°C 38.8°F3.8°C 47% 2.0 mph NE3.2 kmh NE 5.0 mph8.0 kmh 29.73 in1006.8 mb 0.00 in0.0 mm 0.00 in/hr0.0 mm/hr 0.00 in0.0 mm
03:15 AM 58.3°F14.6°C 39.2°F4.0°C 49% 2.0 mph NE3.2 kmh NE 5.0 mph8.0 kmh 29.73 in1006.8 mb 0.00 in0.0 mm 0.00 in/hr0.0 mm/hr 0.00 in0.0 mm
03:10 AM 58.0°F14.4°C 38.9°F3.8°C 49% Calm Calm 4.0 mph6.4 kmh 29.74 in1007.1 mb 0.00 in0.0 mm 0.00 in/hr0.0 mm/hr 0.00 in0.0 mm
03:05 AM 58.0°F14.4°C 38.9°F3.8°C 49% 1.0 mph ENE1.6 kmh ENE 4.0 mph6.4 kmh 29.74 in1007.1 mb 0.00 in0.0 mm 0.00 in/hr0.0 mm/hr 0.00 in0.0 mm
03:00 AM 57.8°F14.3°C 38.8°F3.8°C 49% 1.0 mph ENE1.6 kmh ENE 4.0 mph6.4 kmh 29.74 in1007.1 mb 0.00 in0.0 mm 0.00 in/hr0.0 mm/hr 0.00 in0.0 mm
02:55 AM 58.0°F14.4°C 38.9°F3.8°C 49% 1.0 mph ENE1.6 kmh ENE 2.0 mph3.2 kmh 29.74 in1007.1 mb 0.00 in0.0 mm 0.00 in/hr0.0 mm/hr 0.00 in0.0 mm
02:50 AM 58.3°F14.6°C 39.2°F4.0°C 49% Calm Calm -- 29.74 in1007.1 mb 0.00 in0.0 mm 0.00 in/hr0.0 mm/hr 0.00 in0.0 mm
02:45 AM 58.6°F14.8°C 39.0°F3.9°C 48% Calm Calm -- 29.74 in1007.1 mb 0.00 in0.0 mm 0.00 in/hr0.0 mm/hr 0.00 in0.0 mm
02:40 AM 58.7°F14.8°C 39.1°F3.9°C 48% 1.0 mph ENE1.6 kmh ENE 5.0 mph8.0 kmh 29.75 in1007.5 mb 0.00 in0.0 mm 0.00 in/hr0.0 mm/hr 0.00 in0.0 mm
02:35 AM 58.7°F14.8°C 39.6°F4.2°C 49% 2.0 mph ENE3.2 kmh ENE 5.0 mph8.0 kmh 29.75 in1007.5 mb 0.00 in0.0 mm 0.00 in/hr0.0 mm/hr 0.00 in0.0 mm
02:30 AM 58.3°F14.6°C 39.7°F4.3°C 50% 3.0 mph ENE4.8 kmh ENE 5.0 mph8.0 kmh 29.75 in1007.5 mb 0.00 in0.0 mm 0.00 in/hr0.0 mm/hr 0.00 in0.0 mm
02:25 AM 57.0°F13.9°C 39.5°F4.2°C 52% 3.0 mph ENE4.8 kmh ENE 4.0 mph6.4 kmh 29.75 in1007.5 mb 0.00 in0.0 mm 0.00 in/hr0.0 mm/hr 0.00 in0.0 mm
02:20 AM 56.5°F13.6°C 38.6°F3.7°C 51% 1.0 mph E1.6 kmh E 4.0 mph6.4 kmh 29.75 in1007.5 mb 0.00 in0.0 mm 0.00 in/hr0.0 mm/hr 0.00 in0.0 mm
02:15 AM 56.3°F13.5°C 37.9°F3.3°C 50% 1.0 mph NE1.6 kmh NE 4.0 mph6.4 kmh 29.75 in1007.5 mb 0.00 in0.0 mm 0.00 in/hr0.0 mm/hr 0.00 in0.0 mm
02:10 AM 56.5°F13.6°C 38.1°F3.4°C 50% 1.0 mph NE1.6 kmh NE 4.0 mph6.4 kmh 29.75 in1007.5 mb 0.00 in0.0 mm 0.00 in/hr0.0 mm/hr 0.00 in0.0 mm
02:05 AM 56.7°F13.7°C 37.2°F2.9°C 48% 2.0 mph NE3.2 kmh NE 2.0 mph3.2 kmh 29.75 in1007.5 mb 0.00 in0.0 mm 0.00 in/hr0.0 mm/hr 0.00 in0.0 mm
02:00 AM 57.3°F14.1°C 37.8°F3.2°C 48% Calm Calm -- 29.75 in1007.5 mb 0.00 in0.0 mm 0.00 in/hr0.0 mm/hr 0.00 in0.0 mm
01:55 AM 57.6°F14.2°C 38.1°F3.4°C 48% Calm Calm -- 29.74 in1007.1 mb 0.00 in0.0 mm 0.00 in/hr0.0 mm/hr 0.00 in0.0 mm
01:50 AM 58.0°F14.4°C 38.4°F3.6°C 48% 1.0 mph NE1.6 kmh NE 5.0 mph8.0 kmh 29.74 in1007.1 mb 0.00 in0.0 mm 0.00 in/hr0.0 mm/hr 0.00 in0.0 mm
01:45 AM 58.1°F14.5°C 38.0°F3.3°C 47% 3.0 mph NE4.8 kmh NE 5.0 mph8.0 kmh 29.74 in1007.1 mb 0.00 in0.0 mm 0.00 in/hr0.0 mm/hr 0.00 in0.0 mm
01:40 AM 58.6°F14.8°C 38.4°F3.6°C 47% 3.0 mph NE4.8 kmh NE 5.0 mph8.0 kmh 29.73 in1006.8 mb 0.00 in0.0 mm 0.00 in/hr0.0 mm/hr 0.00 in0.0 mm
01:35 AM 59.0°F15.0°C 38.2°F3.4°C 46% 1.0 mph ENE1.6 kmh ENE 2.0 mph3.2 kmh 29.73 in1006.8 mb 0.00 in0.0 mm 0.00 in/hr0.0 mm/hr 0.00 in0.0 mm
01:30 AM 59.9°F15.5°C 39.1°F3.9°C 46% 1.0 mph ENE1.6 kmh ENE 5.0 mph8.0 kmh 29.73 in1006.8 mb 0.00 in0.0 mm 0.00 in/hr0.0 mm/hr 0.00 in0.0 mm
01:25 AM 61.3°F16.3°C 39.2°F4.0°C 44% 1.0 mph ENE1.6 kmh ENE 7.0 mph11.3 kmh 29.73 in1006.8 mb 0.00 in0.0 mm 0.00 in/hr0.0 mm/hr 0.00 in0.0 mm
01:20 AM 62.6°F17.0°C 39.8°F4.3°C 43% 1.0 mph ENE1.6 kmh ENE 7.0 mph11.3 kmh 29.73 in1006.8 mb 0.00 in0.0 mm 0.00 in/hr0.0 mm/hr 0.00 in0.0 mm
01:15 AM 62.6°F17.0°C 39.8°F4.3°C 43% 3.0 mph ENE4.8 kmh ENE 7.0 mph11.3 kmh 29.73 in1006.8 mb 0.00 in0.0 mm 0.00 in/hr0.0 mm/hr 0.00 in0.0 mm
01:10 AM 61.6°F16.4°C 40.0°F4.4°C 45% 4.0 mph NE6.4 kmh NE 7.0 mph11.3 kmh 29.74 in1007.1 mb 0.00 in0.0 mm 0.00 in/hr0.0 mm/hr 0.00 in0.0 mm
01:05 AM 60.2°F15.7°C 40.4°F4.7°C 48% 3.0 mph ENE4.8 kmh ENE 5.0 mph8.0 kmh 29.74 in1007.1 mb 0.00 in0.0 mm 0.00 in/hr0.0 mm/hr 0.00 in0.0 mm
01:00 AM 59.0°F15.0°C 40.4°F4.7°C 50% 4.0 mph ENE6.4 kmh ENE 5.0 mph8.0 kmh 29.74 in1007.1 mb 0.00 in0.0 mm 0.00 in/hr0.0 mm/hr 0.00 in0.0 mm
12:55 AM 58.6°F14.8°C 40.0°F4.4°C 50% 3.0 mph NE4.8 kmh NE 3.0 mph4.8 kmh 29.75 in1007.5 mb 0.00 in0.0 mm 0.00 in/hr0.0 mm/hr 0.00 in0.0 mm
12:50 AM 58.4°F14.7°C 39.3°F4.1°C 49% 1.0 mph NE1.6 kmh NE 3.0 mph4.8 kmh 29.75 in1007.5 mb 0.00 in0.0 mm 0.00 in/hr0.0 mm/hr 0.00 in0.0 mm
12:45 AM 58.6°F14.8°C 39.5°F4.2°C 49% 2.0 mph NE3.2 kmh NE 3.0 mph4.8 kmh 29.75 in1007.5 mb 0.00 in0.0 mm 0.00 in/hr0.0 mm/hr 0.00 in0.0 mm
12:40 AM 58.7°F14.8°C 39.1°F3.9°C 48% 1.0 mph NE1.6 kmh NE 3.0 mph4.8 kmh 29.75 in1007.5 mb 0.00 in0.0 mm 0.00 in/hr0.0 mm/hr 0.00 in0.0 mm
12:35 AM 59.0°F15.0°C 38.8°F3.8°C 47% 1.0 mph NE1.6 kmh NE 3.0 mph4.8 kmh 29.75 in1007.5 mb 0.00 in0.0 mm 0.00 in/hr0.0 mm/hr 0.00 in0.0 mm
12:30 AM 59.5°F15.3°C 38.7°F3.7°C 46% 1.0 mph NE1.6 kmh NE 3.0 mph4.8 kmh 29.75 in1007.5 mb 0.00 in0.0 mm 0.00 in/hr0.0 mm/hr 0.00 in0.0 mm
12:25 AM 59.9°F15.5°C 39.1°F3.9°C 46% Calm Calm 3.0 mph4.8 kmh 29.76 in1007.8 mb 0.00 in0.0 mm 0.00 in/hr0.0 mm/hr 0.00 in0.0 mm
12:20 AM 60.2°F15.7°C 38.8°F3.8°C 45% 2.0 mph NE3.2 kmh NE 3.0 mph4.8 kmh 29.76 in1007.8 mb 0.00 in0.0 mm 0.00 in/hr0.0 mm/hr 0.00 in0.0 mm
12:15 AM 60.7°F15.9°C 39.2°F4.0°C 45% Calm Calm 4.0 mph6.4 kmh 29.76 in1007.8 mb 0.00 in0.0 mm 0.00 in/hr0.0 mm/hr 0.00 in0.0 mm
12:10 AM 61.0°F16.1°C 38.9°F3.8°C 44% 2.0 mph NE3.2 kmh NE 4.0 mph6.4 kmh 29.76 in1007.8 mb 0.00 in0.0 mm 0.00 in/hr0.0 mm/hr 0.00 in0.0 mm
12:05 AM 61.3°F16.3°C 39.2°F4.0°C 44% 2.0 mph ENE3.2 kmh ENE 4.0 mph6.4 kmh 29.76 in1007.8 mb 0.00 in0.0 mm 0.00 in/hr0.0 mm/hr 0.00 in0.0 mm
12:00 AM 61.5°F16.4°C 39.4°F4.1°C 44% 3.0 mph ENE4.8 kmh ENE 4.0 mph6.4 kmh 29.76 in1007.8 mb 0.00 in0.0 mm 0.00 in/hr0.0 mm/hr 0.00 in0.0 mm